createdAt,value
2022-10-31T00:01:49.219Z,9.10
2022-10-31T00:04:15.873Z,9.10
2022-10-31T00:06:42.530Z,9.10
2022-10-31T00:09:10.923Z,9.40
2022-10-31T00:11:37.688Z,9.20
2022-10-31T00:14:05.068Z,9.40
2022-10-31T00:16:31.794Z,9.30
2022-10-31T00:19:01.512Z,9.50
2022-10-31T00:21:29.315Z,9.50
2022-10-31T00:23:56.093Z,9.10
2022-10-31T00:26:22.742Z,9.00
2022-10-31T00:28:49.636Z,9.20
2022-10-31T00:31:16.358Z,9.00
2022-10-31T00:36:18.487Z,8.90
2022-10-31T00:38:46.181Z,9.60
2022-10-31T00:41:14.593Z,8.90
2022-10-31T00:43:41.902Z,9.60
2022-10-31T00:46:08.606Z,9.20
2022-10-31T00:48:35.261Z,9.10
2022-10-31T00:51:01.924Z,9.10
2022-10-31T00:53:28.575Z,9.20
2022-10-31T00:55:55.218Z,9.50
2022-10-31T00:58:21.951Z,9.50
2022-10-31T01:00:57.882Z,9.30
2022-10-31T01:03:30.015Z,8.90
2022-10-31T01:06:09.019Z,9.40
2022-10-31T01:08:37.616Z,9.00
2022-10-31T01:11:19.150Z,9.10
2022-10-31T01:13:46.913Z,9.10
2022-10-31T01:16:16.469Z,9.60
2022-10-31T01:18:44.137Z,9.30
2022-10-31T01:21:13.621Z,9.60
2022-10-31T01:23:40.988Z,9.60
2022-10-31T01:26:17.575Z,9.50
2022-10-31T01:28:48.618Z,9.40
2022-10-31T01:31:16.162Z,9.50
2022-10-31T01:33:43.086Z,9.20
2022-10-31T01:36:14.946Z,9.40
2022-10-31T01:38:41.649Z,9.10
2022-10-31T01:41:10.509Z,9.10
2022-10-31T01:43:45.376Z,9.00
2022-10-31T01:46:12.637Z,9.50
2022-10-31T01:48:43.341Z,9.20
2022-10-31T01:51:13.557Z,9.10
2022-10-31T01:53:44.448Z,9.40
2022-10-31T01:56:11.642Z,9.20
2022-10-31T01:58:38.608Z,9.60
2022-10-31T02:01:07.824Z,9.70
2022-10-31T02:03:35.326Z,9.10
2022-10-31T02:06:03.952Z,9.10
2022-10-31T02:08:33.414Z,9.00
2022-10-31T02:11:02.345Z,9.60
2022-10-31T02:13:30.243Z,9.00
2022-10-31T02:15:59.265Z,9.20
2022-10-31T02:18:29.102Z,9.00
2022-10-31T02:21:13.754Z,9.50
2022-10-31T02:24:10.680Z,9.00
2022-10-31T02:26:55.819Z,9.00
2022-10-31T02:29:31.579Z,9.00
2022-10-31T02:31:58.217Z,9.20
2022-10-31T02:34:41.174Z,9.20
2022-10-31T02:37:12.949Z,9.10
2022-10-31T02:40:05.364Z,9.80
2022-10-31T02:42:39.914Z,9.10
2022-10-31T02:45:29.583Z,9.20
2022-10-31T02:48:02.709Z,9.20
2022-10-31T02:50:38.771Z,9.50
2022-10-31T02:53:05.463Z,9.30
2022-10-31T02:55:32.099Z,8.80
2022-10-31T02:58:05.701Z,9.30
2022-10-31T03:00:52.205Z,9.10
2022-10-31T03:03:44.030Z,9.20
2022-10-31T03:09:11.949Z,9.20
2022-10-31T03:11:51.657Z,9.40
2022-10-31T03:14:30.851Z,9.40
2022-10-31T03:17:02.732Z,9.60
2022-10-31T03:19:50.546Z,9.20
2022-10-31T03:22:30.515Z,9.70
2022-10-31T03:24:58.260Z,9.20
2022-10-31T03:27:27.214Z,9.40
2022-10-31T03:30:01.540Z,9.60
2022-10-31T03:32:54.219Z,9.30
2022-10-31T03:35:23.977Z,9.40
2022-10-31T03:37:52.515Z,9.30
2022-10-31T03:40:21.933Z,9.20
2022-10-31T03:42:55.524Z,9.30
2022-10-31T03:45:28.665Z,9.90
2022-10-31T03:47:56.171Z,9.20
2022-10-31T03:50:24.953Z,9.20
2022-10-31T03:53:09.170Z,9.70
2022-10-31T03:55:43.775Z,9.30
2022-10-31T03:58:25.127Z,9.40
2022-10-31T04:00:55.436Z,9.30
2022-10-31T04:03:30.511Z,9.40
2022-10-31T04:06:01.926Z,9.20
2022-10-31T04:08:32.298Z,9.10
2022-10-31T04:11:01.004Z,9.40
2022-10-31T04:13:31.084Z,9.20
2022-10-31T04:15:58.342Z,9.80
2022-10-31T04:18:25.253Z,9.40
2022-10-31T04:21:01.457Z,9.30
2022-10-31T04:23:28.549Z,9.20
2022-10-31T04:25:55.290Z,9.20
2022-10-31T04:28:22.255Z,9.40
2022-10-31T04:30:49.039Z,9.20
2022-10-31T04:33:15.764Z,9.20
2022-10-31T04:35:42.691Z,9.40
2022-10-31T04:38:09.326Z,9.50
2022-10-31T04:40:35.990Z,9.80
2022-10-31T04:43:02.858Z,9.50
2022-10-31T04:45:29.839Z,9.40
2022-10-31T04:47:56.545Z,9.40
2022-10-31T04:50:23.225Z,9.70
2022-10-31T04:52:50.889Z,10.00
2022-10-31T05:12:51.938Z,9.70
2022-10-31T05:15:20.885Z,9.70
2022-10-31T05:17:47.704Z,9.70
2022-10-31T05:20:15.937Z,9.80
2022-10-31T05:22:47.144Z,9.50
2022-10-31T05:25:13.883Z,9.90
2022-10-31T05:27:45.891Z,9.60
2022-10-31T05:30:15.063Z,9.60
2022-10-31T05:32:43.836Z,9.40
2022-10-31T05:35:13.376Z,9.30
2022-10-31T05:37:40.629Z,9.70
2022-10-31T05:40:10.149Z,9.90
2022-10-31T05:42:36.870Z,9.40
2022-10-31T05:45:03.827Z,10.10
2022-10-31T05:47:30.488Z,9.40
2022-10-31T05:49:57.142Z,9.90
2022-10-31T05:52:23.852Z,9.50
2022-10-31T05:54:50.526Z,9.50
2022-10-31T05:57:17.215Z,9.70
2022-10-31T05:59:43.962Z,9.60
2022-10-31T06:02:10.724Z,9.70
2022-10-31T06:04:37.421Z,9.90
2022-10-31T06:07:04.122Z,9.70
2022-10-31T06:09:30.776Z,10.30
2022-10-31T06:11:57.494Z,9.70
2022-10-31T06:14:24.200Z,9.80
2022-10-31T06:16:50.906Z,9.70
2022-10-31T06:19:17.593Z,9.90
2022-10-31T06:21:44.310Z,9.80
2022-10-31T06:24:10.971Z,9.90
2022-10-31T06:26:37.632Z,9.80
2022-10-31T06:29:04.412Z,9.80
2022-10-31T06:31:31.205Z,9.90
2022-10-31T06:33:58.155Z,9.80
2022-10-31T06:36:25.000Z,10.60
2022-10-31T06:38:51.711Z,9.90
2022-10-31T06:41:18.424Z,10.00
2022-10-31T06:43:48.162Z,10.40
2022-10-31T06:46:14.896Z,10.50
2022-10-31T06:48:42.932Z,10.70
2022-10-31T06:51:10.037Z,10.40
2022-10-31T06:53:36.787Z,10.40
2022-10-31T06:56:04.041Z,10.40
2022-10-31T06:58:30.743Z,10.40
2022-10-31T07:01:01.056Z,10.50
2022-10-31T07:03:27.909Z,10.70
2022-10-31T07:05:57.421Z,10.70
2022-10-31T07:08:25.795Z,10.60
2022-10-31T07:10:57.098Z,10.80
2022-10-31T07:13:27.527Z,10.80
2022-10-31T07:15:56.273Z,11.10
2022-10-31T07:18:23.046Z,11.00
2022-10-31T07:20:49.826Z,11.00
2022-10-31T07:23:16.556Z,11.00
2022-10-31T07:25:43.387Z,11.10
2022-10-31T07:28:10.900Z,11.40
2022-10-31T07:30:38.813Z,11.20
2022-10-31T07:33:06.297Z,11.30
2022-10-31T07:35:33.389Z,11.40
2022-10-31T07:38:09.407Z,11.60
2022-10-31T07:40:36.103Z,11.50
2022-10-31T07:43:02.857Z,11.50
2022-10-31T07:45:29.760Z,11.60
2022-10-31T07:47:56.668Z,11.70
2022-10-31T07:50:26.353Z,11.80
2022-10-31T07:53:05.403Z,11.80
2022-10-31T07:55:32.946Z,11.70
2022-10-31T07:58:01.709Z,11.90
2022-10-31T08:00:28.950Z,12.00
2022-10-31T08:03:03.290Z,11.80
2022-10-31T08:05:31.480Z,11.90
2022-10-31T08:07:59.065Z,11.90
2022-10-31T08:10:27.061Z,12.10
2022-10-31T08:13:10.775Z,12.10
2022-10-31T08:15:40.383Z,12.30
2022-10-31T08:18:11.477Z,12.10
2022-10-31T08:20:38.211Z,12.10
2022-10-31T08:23:06.141Z,12.20
2022-10-31T08:25:38.287Z,12.30
2022-10-31T08:28:07.559Z,12.30
2022-10-31T08:30:36.274Z,12.30
2022-10-31T08:33:12.845Z,12.40
2022-10-31T08:38:20.398Z,12.40
2022-10-31T08:40:50.335Z,12.60
2022-10-31T08:43:18.321Z,12.80
2022-10-31T08:45:48.828Z,12.80
2022-10-31T08:48:19.636Z,12.90
2022-10-31T08:50:46.970Z,13.10
2022-10-31T08:53:16.497Z,13.30
2022-10-31T08:55:44.573Z,13.10
2022-10-31T08:58:18.931Z,13.30
2022-10-31T09:00:47.139Z,13.00
2022-10-31T09:03:16.491Z,13.00
2022-10-31T09:05:45.030Z,13.20
2022-10-31T09:08:16.920Z,13.10
2022-10-31T09:10:44.604Z,13.20
2022-10-31T09:13:13.933Z,13.40
2022-10-31T09:15:44.756Z,13.30
2022-10-31T09:18:12.795Z,13.30
2022-10-31T09:20:41.220Z,13.40
2022-10-31T09:23:14.066Z,13.50
2022-10-31T09:25:49.161Z,13.70
2022-10-31T09:28:19.272Z,13.70
2022-10-31T09:30:48.768Z,14.20
2022-10-31T09:33:15.781Z,14.00
2022-10-31T09:35:43.272Z,14.00
2022-10-31T09:38:20.701Z,14.10
2022-10-31T09:40:56.152Z,14.00
2022-10-31T09:43:35.063Z,14.40
2022-10-31T09:46:21.736Z,14.50
2022-10-31T09:49:42.602Z,14.60
2022-10-31T09:52:21.257Z,14.70
2022-10-31T09:55:09.773Z,14.70
2022-10-31T09:57:38.246Z,14.70
2022-10-31T10:00:11.171Z,14.70
2022-10-31T10:02:42.853Z,14.60
2022-10-31T10:05:16.361Z,14.70
2022-10-31T10:08:11.013Z,14.70
2022-10-31T10:10:52.570Z,14.80
2022-10-31T10:13:28.274Z,14.80
2022-10-31T10:16:20.988Z,14.60
2022-10-31T10:18:50.642Z,14.50
2022-10-31T10:21:52.293Z,14.50
2022-10-31T10:24:31.481Z,14.30
2022-10-31T10:27:19.224Z,14.30
2022-10-31T10:29:58.522Z,14.50
2022-10-31T10:32:33.092Z,14.60
2022-10-31T10:35:23.331Z,14.80
2022-10-31T10:37:54.993Z,14.90
2022-10-31T10:40:25.186Z,15.00
2022-10-31T10:43:25.175Z,15.20
2022-10-31T10:46:13.024Z,15.20
2022-10-31T10:48:44.661Z,15.30
2022-10-31T10:54:49.097Z,15.30
2022-10-31T10:59:50.413Z,15.40
2022-10-31T11:02:25.386Z,15.30
2022-10-31T11:04:56.083Z,15.60
2022-10-31T11:07:23.394Z,15.10
2022-10-31T11:09:50.226Z,15.10
2022-10-31T11:12:31.343Z,15.10
2022-10-31T11:15:08.671Z,15.10
2022-10-31T11:20:17.921Z,15.00
2022-10-31T11:22:47.800Z,15.20
2022-10-31T11:25:20.319Z,15.10
2022-10-31T11:27:47.772Z,15.00
2022-10-31T11:30:15.594Z,15.00
2022-10-31T11:32:48.924Z,15.10
2022-10-31T11:35:19.514Z,15.20
2022-10-31T11:37:49.143Z,15.30
2022-10-31T11:40:22.195Z,15.30
2022-10-31T11:42:51.002Z,15.20
2022-10-31T11:45:28.269Z,15.20
2022-10-31T11:47:59.897Z,15.30
2022-10-31T11:50:34.153Z,15.30
2022-10-31T11:53:01.770Z,15.20
2022-10-31T11:55:33.344Z,15.20
2022-10-31T11:58:01.048Z,15.20
2022-10-31T12:03:24.030Z,15.30
2022-10-31T12:06:12.967Z,15.50
2022-10-31T12:08:41.820Z,15.60
2022-10-31T12:11:39.198Z,15.60
2022-10-31T12:14:25.415Z,15.70
2022-10-31T12:17:25.715Z,15.80
2022-10-31T12:20:07.522Z,15.80
2022-10-31T12:22:57.187Z,15.90
2022-10-31T12:25:42.016Z,16.00
2022-10-31T12:28:41.369Z,16.10
2022-10-31T12:31:29.645Z,16.40
2022-10-31T12:34:14.477Z,16.60
2022-10-31T12:36:56.837Z,16.80
2022-10-31T12:39:33.562Z,16.80
2022-10-31T12:42:41.602Z,16.90
2022-10-31T12:45:54.194Z,17.20
2022-10-31T12:48:52.670Z,17.50
2022-10-31T12:51:40.460Z,17.60
2022-10-31T12:54:48.234Z,17.80
2022-10-31T12:57:17.958Z,17.80
2022-10-31T12:59:54.388Z,17.80
2022-10-31T13:02:44.712Z,17.70
2022-10-31T13:05:30.104Z,17.70
2022-10-31T13:08:05.158Z,17.70
2022-10-31T13:10:40.939Z,17.70
2022-10-31T13:13:25.876Z,17.50
2022-10-31T13:16:04.646Z,17.60
2022-10-31T13:18:49.644Z,17.50
2022-10-31T13:21:27.353Z,17.60
2022-10-31T13:23:57.569Z,17.70
2022-10-31T13:26:51.133Z,17.40
2022-10-31T13:29:43.590Z,17.50
2022-10-31T13:32:12.503Z,17.50
2022-10-31T13:34:46.340Z,17.30
2022-10-31T13:37:19.080Z,17.20
2022-10-31T13:40:07.262Z,17.10
2022-10-31T13:42:54.036Z,17.00
2022-10-31T13:45:23.487Z,16.90
2022-10-31T13:48:30.299Z,16.90
2022-10-31T13:51:00.759Z,16.90
2022-10-31T13:53:45.910Z,16.80
2022-10-31T13:56:16.944Z,16.90
2022-10-31T13:59:01.408Z,16.80
2022-10-31T14:01:38.537Z,16.80
2022-10-31T14:04:17.007Z,16.80
2022-10-31T14:07:05.273Z,17.30
2022-10-31T14:09:41.067Z,16.80
2022-10-31T14:12:24.645Z,16.80
2022-10-31T14:14:55.082Z,16.70
2022-10-31T14:17:25.933Z,16.80
2022-10-31T14:20:11.986Z,16.80
2022-10-31T14:22:42.899Z,16.80
2022-10-31T14:25:45.182Z,16.70
2022-10-31T14:31:01.441Z,16.60
2022-10-31T14:33:30.594Z,16.50
2022-10-31T14:36:19.959Z,16.40
2022-10-31T14:39:12.545Z,16.30
2022-10-31T14:41:39.190Z,16.30
2022-10-31T14:44:20.103Z,16.10
2022-10-31T14:47:10.773Z,16.10
2022-10-31T14:50:09.168Z,16.10
2022-10-31T14:52:38.840Z,15.90
2022-10-31T14:55:12.507Z,15.80
2022-10-31T14:57:45.384Z,15.80
2022-10-31T15:00:18.360Z,15.70
2022-10-31T15:03:15.718Z,15.60
2022-10-31T15:05:49.498Z,15.50
2022-10-31T15:08:35.943Z,15.50
2022-10-31T15:11:37.701Z,15.30
2022-10-31T15:14:36.678Z,15.30
2022-10-31T15:17:05.064Z,15.10
2022-10-31T15:19:34.519Z,15.10
2022-10-31T15:22:01.701Z,14.80
2022-10-31T15:24:40.616Z,14.90
2022-10-31T15:27:15.970Z,14.90
2022-10-31T15:29:54.467Z,14.80
2022-10-31T15:32:29.666Z,14.70
2022-10-31T15:34:57.846Z,14.80
2022-10-31T15:37:26.691Z,14.90
2022-10-31T15:39:53.755Z,14.60
2022-10-31T15:42:40.383Z,14.60
2022-10-31T15:45:15.263Z,14.40
2022-10-31T15:48:17.745Z,14.50
2022-10-31T15:50:58.537Z,14.30
2022-10-31T15:53:26.993Z,14.20
2022-10-31T15:56:00.415Z,14.10
2022-10-31T15:58:29.286Z,14.00
2022-10-31T16:01:05.556Z,14.00
2022-10-31T16:03:34.171Z,13.80
2022-10-31T16:06:05.897Z,13.70
2022-10-31T16:08:36.702Z,13.70
2022-10-31T16:11:19.079Z,13.60
2022-10-31T16:14:11.879Z,13.50
2022-10-31T16:16:49.141Z,13.50
2022-10-31T16:19:20.410Z,13.60
2022-10-31T16:21:51.049Z,13.50
2022-10-31T16:24:30.805Z,13.50
2022-10-31T16:27:16.540Z,13.30
2022-10-31T16:29:47.068Z,13.30
2022-10-31T16:32:25.553Z,13.40
2022-10-31T16:35:11.265Z,13.20
2022-10-31T16:37:44.459Z,13.10
2022-10-31T16:40:15.445Z,13.20
2022-10-31T16:42:43.223Z,13.10
2022-10-31T16:45:18.478Z,13.00
2022-10-31T16:47:45.717Z,12.90
2022-10-31T16:50:22.994Z,13.00
2022-10-31T16:53:12.408Z,12.70
2022-10-31T16:55:45.433Z,12.60
2022-10-31T16:58:24.242Z,12.50
2022-10-31T17:00:51.848Z,12.40
2022-10-31T17:05:49.069Z,12.20
2022-10-31T17:08:16.074Z,12.30
2022-10-31T17:13:23.026Z,12.00
2022-10-31T17:15:53.359Z,12.00
2022-10-31T17:18:24.389Z,12.00
2022-10-31T17:21:03.187Z,12.10
2022-10-31T17:23:30.363Z,11.90
2022-10-31T17:25:57.347Z,11.90
2022-10-31T17:28:26.488Z,11.90
2022-10-31T17:30:55.610Z,12.00
2022-10-31T17:33:22.729Z,11.90
2022-10-31T17:35:49.548Z,12.10
2022-10-31T17:38:16.241Z,11.90
2022-10-31T17:40:43.123Z,12.00
2022-10-31T17:43:10.993Z,12.00
2022-10-31T17:45:39.920Z,11.90
2022-10-31T17:48:07.116Z,11.90
2022-10-31T17:50:33.880Z,11.90
2022-10-31T17:53:01.116Z,11.80
2022-10-31T17:55:29.679Z,12.00
2022-10-31T17:57:59.378Z,12.00
2022-10-31T18:00:26.863Z,12.00
2022-10-31T18:02:53.646Z,11.80
2022-10-31T18:05:20.341Z,11.90
2022-10-31T18:07:50.902Z,12.00
2022-10-31T18:10:17.690Z,11.90
2022-10-31T18:12:44.489Z,11.90
2022-10-31T18:15:11.283Z,12.00
2022-10-31T18:17:41.048Z,12.20
2022-10-31T18:20:09.802Z,12.00
2022-10-31T18:22:36.805Z,12.00
2022-10-31T18:25:04.145Z,11.90
2022-10-31T18:27:30.845Z,11.90
2022-10-31T18:29:57.525Z,12.00
2022-10-31T18:32:24.223Z,12.00
2022-10-31T18:34:50.862Z,11.90
2022-10-31T18:37:17.647Z,12.00
2022-10-31T18:39:44.322Z,11.80
2022-10-31T18:42:11.008Z,11.90
2022-10-31T18:44:38.215Z,11.80
2022-10-31T18:47:04.970Z,11.80
2022-10-31T18:49:32.816Z,11.70
2022-10-31T18:52:00.161Z,11.70
2022-10-31T18:54:26.940Z,11.70
2022-10-31T18:56:54.522Z,11.70
2022-10-31T18:59:21.429Z,11.70
2022-10-31T19:01:48.224Z,11.60
2022-10-31T19:04:15.046Z,11.70
2022-10-31T19:06:41.796Z,11.40
2022-10-31T19:09:11.198Z,11.60
2022-10-31T19:11:39.203Z,11.30
2022-10-31T19:14:08.358Z,11.30
2022-10-31T19:16:35.494Z,11.20
2022-10-31T19:19:02.743Z,11.20
2022-10-31T19:21:31.125Z,11.30
2022-10-31T19:23:58.705Z,11.40
2022-10-31T19:26:26.545Z,11.30
2022-10-31T19:28:54.914Z,11.40
2022-10-31T19:31:21.807Z,11.50
2022-10-31T19:33:48.493Z,11.30
2022-10-31T19:36:18.086Z,11.40
2022-10-31T19:38:47.096Z,11.40
2022-10-31T19:41:22.683Z,11.50
2022-10-31T19:43:50.181Z,11.20
2022-10-31T19:46:22.784Z,11.30
2022-10-31T19:48:54.809Z,11.60
2022-10-31T19:51:22.240Z,11.40
2022-10-31T19:53:52.515Z,11.30
2022-10-31T19:56:24.589Z,11.40
2022-10-31T19:58:51.364Z,11.40
2022-10-31T20:01:20.801Z,11.50
2022-10-31T20:03:49.193Z,11.50
2022-10-31T20:08:44.302Z,11.30
2022-10-31T20:11:10.970Z,11.70
2022-10-31T20:13:37.689Z,11.50
2022-10-31T20:16:10.239Z,11.40
2022-10-31T20:18:37.735Z,11.30
2022-10-31T20:21:07.344Z,11.40
2022-10-31T20:23:35.089Z,11.40
2022-10-31T20:26:02.461Z,11.70
2022-10-31T20:28:33.083Z,11.40
2022-10-31T20:31:01.338Z,11.30
2022-10-31T20:33:28.006Z,11.20
2022-10-31T20:35:54.655Z,11.30
2022-10-31T20:38:21.277Z,11.30
2022-10-31T20:40:47.989Z,11.20
2022-10-31T20:43:16.354Z,11.20
2022-10-31T20:45:43.007Z,11.10
2022-10-31T20:48:09.739Z,11.60
2022-10-31T20:50:38.651Z,11.10
2022-10-31T20:53:05.871Z,11.00
2022-10-31T20:55:32.608Z,11.00
2022-10-31T20:57:59.267Z,11.10
2022-10-31T21:00:25.974Z,11.00
2022-10-31T21:02:52.618Z,11.10
2022-10-31T21:05:19.250Z,11.20
2022-10-31T21:07:45.954Z,11.60
2022-10-31T21:10:15.372Z,10.90
2022-10-31T21:12:45.766Z,11.00
2022-10-31T21:15:14.270Z,11.00
2022-10-31T21:17:41.592Z,10.80
2022-10-31T21:20:10.037Z,10.60
2022-10-31T21:22:36.845Z,10.50
2022-10-31T21:25:03.752Z,10.70
2022-10-31T21:27:31.129Z,10.30
2022-10-31T21:29:58.088Z,10.20
2022-10-31T21:32:24.846Z,10.10
2022-10-31T21:34:51.502Z,10.30
2022-10-31T21:37:18.255Z,10.00
2022-10-31T21:39:49.747Z,10.00
2022-10-31T21:42:20.575Z,10.00
2022-10-31T21:44:51.192Z,10.10
2022-10-31T21:47:18.299Z,10.00
2022-10-31T21:49:45.130Z,10.30
2022-10-31T21:52:12.185Z,9.90
2022-10-31T21:54:38.833Z,10.20
2022-10-31T21:57:05.491Z,10.00
2022-10-31T21:59:32.177Z,10.00
2022-10-31T22:02:00.512Z,9.80
2022-10-31T22:04:28.318Z,9.70
2022-10-31T22:06:55.824Z,10.00
2022-10-31T22:09:23.679Z,9.60
2022-10-31T22:11:50.916Z,9.80
2022-10-31T22:14:17.790Z,9.90
2022-10-31T22:16:44.697Z,9.50
2022-10-31T22:19:13.312Z,9.40
2022-10-31T22:21:46.307Z,9.50
2022-10-31T22:27:49.005Z,9.40
2022-10-31T22:30:15.683Z,9.50
2022-10-31T22:32:42.429Z,9.40
2022-10-31T22:35:09.317Z,9.40
2022-10-31T22:37:35.971Z,9.30
2022-10-31T22:40:03.461Z,9.40
2022-10-31T22:42:30.135Z,9.40
2022-10-31T22:44:56.827Z,9.40
2022-10-31T22:47:23.501Z,9.20
2022-10-31T22:49:50.235Z,9.40
2022-10-31T22:52:16.942Z,9.30
2022-10-31T22:54:43.609Z,10.90
2022-10-31T22:57:10.299Z,9.20
2022-10-31T22:59:36.974Z,9.30
2022-10-31T23:02:06.036Z,9.20
2022-10-31T23:04:35.001Z,9.10
2022-10-31T23:07:01.717Z,9.00
2022-10-31T23:09:28.485Z,9.00
2022-10-31T23:12:15.102Z,9.70
2022-10-31T23:14:41.766Z,8.90
2022-10-31T23:17:08.556Z,8.80
2022-10-31T23:19:36.152Z,8.80
2022-10-31T23:22:04.060Z,8.80
2022-10-31T23:24:42.301Z,8.60
2022-10-31T23:27:24.687Z,8.70
2022-10-31T23:29:53.730Z,8.80
2022-10-31T23:32:26.178Z,8.60
2022-10-31T23:34:55.554Z,8.70
2022-10-31T23:37:25.140Z,10.30
2022-10-31T23:39:52.329Z,8.80
2022-10-31T23:42:19.906Z,8.70
2022-10-31T23:44:46.923Z,10.20
2022-10-31T23:47:13.945Z,8.70
2022-10-31T23:49:40.957Z,8.70
2022-10-31T23:52:08.395Z,8.60
2022-10-31T23:54:35.155Z,10.40
2022-10-31T23:57:02.286Z,8.60
2022-10-31T23:59:29.163Z,10.90
